Mayville, ND

6:37 AM CDT on March 29, 2017 (GMT -0500)
Northwood | | Change Station

Elev 0 ft 47.73 °N, 97.57 °W | Updated 15 minutes ago

Partly Cloudy
Partly Cloudy
0.5 °F
Feels Like 0 °F
N
1.2
Wind Variable Wind from West
Gusts 2.5 mph

Today
High -- | Low -- °F
--% Chance of Precip.
Yesterday
High -- | Low -- °F
Precip. -- in
Pressure 30.19 in
Visibility 10.0 miles
Clouds Mostly Cloudy 18000 ft
Windchill 0 °F
Dew Point -6 °F
Humidity 74%
Rainfall 0.00 in
Snow Depth Not available.
7:13 AM 7:55 PM
Waxing Crescent, 3% visible
METAR KGFK 291053Z 00000KT 10SM BKN180 00/M01 A3017 RMK AO2 SLP223 T00001006
Pressure 30.19 in
Visibility 10.0 miles
Clouds Mostly Cloudy 18000 ft
Windchill 0 °F
Dew Point -6 °F
Humidity 74%
Rainfall 0.00 in
Snow Depth Not available.
7:13 AM 7:55 PM
Waxing Crescent, 3% visible
METAR KGFK 291053Z 00000KT 10SM BKN180 00/M01 A3017 RMK AO2 SLP223 T00001006

Get Severe Weather Alerts

Thanks for signing up!

Be on the lookout for a verification email in your inbox.

You'll start receiving the daily forecast at 8 AM.

×

10-Day Weather Forecast

Almanac

Astronomy

Mar. 29, 2017 Rise Set
Actual Time
Civil Twilight
Nautical Twilight
Astronomical Twilight
Moon
Length of Visible Light
Length of Day
Tomorrow will be .
, % of the Moon is Illuminated

Today's Extremes

State Highs State Lows

Community

WunderPhotos

Upload Photos

1,962,540 photos uploaded!

WunderBlog® & News

Nearby

Air Quality

  Air Quality AQ Index Pollutant
Not available.

Snow Depth

Station Depth Elevation

Earthquake Activity

City Distance Mag. Time & Date
Minimum magnitude displayed is 2.5.

Earthquake Activity

City Distance Mag. Time & Date
Minimum magnitude displayed is 2.5.

Coastal Water Temperatures

Place Temperature

Stations

Nearby Weather Stations

Station Location Temp. Windchill Dew Point Humidity Wind Precip. Elev Updated Type
                   

Watches & Warnings

There are currently no watches in effect.